Pagrindinis puslapis
METAR-TAF:

METAR-TAF

Oro uostai :

Katherine, Australija

platuma: 14-26S, ilguma: 132-16E, Aukštis: 108 m

Dabartinis oras

Ataskaita buvo paskelbta 36 minutes, ne 00:30 UTC
Vėjas 4 kt iš Šiaurės Vakarų, svyruoja nuo Vakarų ir Šiaurės/Šiaurės Vakarų
Temperatūra 28°C
Drėgmė 70%
Slėgis 1007 hPa
Matomumas 10 km arba daugiau

METAR: YPTN 260030Z AUTO 31004KT 270V340 9999 // NCD 28/22 Q1007 RF00.0/000.0

Laikas: 10:36 (01:06 UTC)

Prognozė

Ataskaita buvo paskelbta 1 valandą ir 58 minutes, ne 23:08 UTC
Prognozė galioja nuo 26 metu 00 UTC su 27 metu 00 UTC
Vėjas 4 kt iš Šiaurės/Šiaurės Vakarų
Matomumas 10 km arba daugiau
Išsisklaidę debesys ne aukštis 2000 ft
Nuo 26 metu 0100 UTC
Vėjas 9 kt iš Pietryčių
Matomumas 10 km arba daugiau
nėra debesų žemiau 1500 m ir nėra kamuolinių lietaus debesų
Nuo 26 metu 1300 UTC
Vėjas 4 kt iš Šiaurės/Šiaurės Vakarų
Matomumas 10 km arba daugiau
Išsisklaidę debesys ne aukštis 2000 ft

TAF: YPTN 252308Z 2600/2700 33004KT 9999 SCT020 FM260100 13009KT CAVOK FM261300 33004KT 9999 SCT020

Orai ataskaitas ir orų prognozės (METAR, TAF).

turimą stotys yra geltonos ir raudonos taškus žemėlapyje.

Perkelti pele per norėdami pamatyti stoties vardą.

Tada spustelėkite, norėdami matyti oro stebėjimo ir prognozės.

Norėdami pakeisti žemėlapį: spustelėkite ant žalios mygtukų su juodo kryžiaus žemyn,; žalią mygtuką su brūkšneliu, jei norite nutolinti; arba žalių rodyklių gretimoms žemėlapius.


METAR-TAF: